Time;durP1;ratioP1;P1;durP2;ratioP2;P2;SDS_P1;SDS_P2;PMS_P1;PMS_P2;Temp;Humidity;BMP_temperature;BMP_pressure;BME280_temperature;BME280_humidity;BME280_pressure;Samples;Min_cycle;Max_cycle;Signal;HPM_P1;HPM_P2
2022/06/09 00:01:34;;;;;;;29.88;7.82;;;;;;;12.03;100.00;100666.84;5201931;28;21637;-67
2022/06/09 00:04:16;;;;;;;23.45;7.90;;;;;;;12.02;100.00;100672.31;5201276;28;20354;-67
2022/06/09 00:06:53;;;;;;;24.10;8.20;;;;;;;12.09;100.00;100678.84;5198601;28;20425;-66
2022/06/09 00:09:34;;;;;;;20.58;8.35;;;;;;;12.04;100.00;100686.41;5200508;28;20037;-66
2022/06/09 00:12:07;;;;;;;20.52;8.80;;;;;;;12.02;100.00;100686.50;5202798;28;20614;-66
2022/06/09 00:14:38;;;;;;;23.23;8.57;;;;;;;12.02;100.00;100689.19;5201388;28;20043;-66
2022/06/09 00:17:10;;;;;;;25.80;8.75;;;;;;;12.08;100.00;100693.16;5198449;28;20025;-66
2022/06/09 00:19:42;;;;;;;23.67;8.60;;;;;;;12.12;100.00;100698.16;5200384;28;20033;-66
2022/06/09 00:22:13;;;;;;;23.90;8.75;;;;;;;12.09;100.00;100684.19;5196045;28;20060;-66
2022/06/09 00:24:45;;;;;;;23.55;8.90;;;;;;;12.09;100.00;100689.53;5195928;28;20442;-67
2022/06/09 00:27:16;;;;;;;26.15;8.93;;;;;;;12.08;100.00;100680.66;5195090;28;20103;-67
2022/06/09 00:29:47;;;;;;;22.52;8.10;;;;;;;12.22;100.00;100684.81;5200443;28;20029;-67
2022/06/09 00:32:19;;;;;;;23.33;7.68;;;;;;;12.14;100.00;100695.34;5193439;28;20093;-67
2022/06/09 00:34:50;;;;;;;28.40;8.40;;;;;;;12.11;100.00;100690.25;5197528;28;20484;-66
2022/06/09 00:37:22;;;;;;;22.75;8.73;;;;;;;12.11;100.00;100691.09;5200001;28;20026;-67
2022/06/09 00:39:54;;;;;;;23.50;7.63;;;;;;;12.05;100.00;100694.28;5197949;28;20038;-67
2022/06/09 00:42:26;;;;;;;21.65;7.65;;;;;;;12.07;100.00;100689.66;5193125;28;20287;-67
2022/06/09 00:45:24;;;;;;;20.35;7.82;;;;;;;12.03;100.00;100685.56;5199582;28;20023;-67
2022/06/09 00:48:04;;;;;;;27.10;7.97;;;;;;;11.96;100.00;100693.22;5193347;28;21314;-67
2022/06/09 00:50:39;;;;;;;23.55;7.55;;;;;;;11.90;100.00;100699.09;5206054;28;20524;-67
2022/06/09 00:53:14;;;;;;;;;;;;;;;11.93;100.00;100690.00;5196425;28;21320;-67
2022/06/09 00:55:46;;;;;;;26.60;7.72;;;;;;;11.82;100.00;100706.91;5201964;28;19913;-67
2022/06/09 00:58:21;;;;;;;25.98;7.63;;;;;;;11.77;100.00;100693.94;5197403;28;20361;-67
2022/06/09 01:01:00;;;;;;;24.52;8.82;;;;;;;11.74;100.00;100696.84;5194974;28;20172;-67
2022/06/09 01:03:41;;;;;;;21.27;7.65;;;;;;;11.70;100.00;100706.09;5199574;28;20472;-67
2022/06/09 01:06:33;;;;;;;26.77;9.38;;;;;;;11.73;100.00;100700.50;5195211;28;20725;-67
2022/06/09 01:09:09;;;;;;;33.33;9.13;;;;;;;11.85;100.00;100701.31;5201412;28;20104;-67
2022/06/09 01:11:41;;;;;;;28.58;8.07;;;;;;;11.84;100.00;100696.94;5199933;28;21196;-67
2022/06/09 01:14:16;;;;;;;25.40;9.20;;;;;;;11.80;100.00;100700.00;5195435;28;20033;-67
2022/06/09 01:16:57;;;;;;;31.33;9.80;;;;;;;11.86;100.00;100705.66;5202325;28;20057;-67
2022/06/09 01:19:47;;;;;;;27.58;8.70;;;;;;;11.88;100.00;100703.72;5197381;28;20038;-67
2022/06/09 01:22:23;;;;;;;28.40;9.55;;;;;;;11.93;100.00;100703.38;5210114;28;20034;-67
2022/06/09 01:25:01;;;;;;;27.35;9.38;;;;;;;11.84;100.00;100710.28;5197800;28;20651;-67
2022/06/09 01:27:59;;;;;;;32.58;9.02;;;;;;;11.90;100.00;100716.97;5189561;28;20049;-67
2022/06/09 01:31:06;;;;;;;27.65;9.40;;;;;;;11.94;100.00;100715.75;5194318;28;20794;-66
2022/06/09 01:33:49;;;;;;;31.83;9.90;;;;;;;11.91;100.00;100714.19;5201580;28;20026;-67
2022/06/09 01:36:32;;;;;;;34.30;9.65;;;;;;;11.96;100.00;100711.94;5194879;28;20026;-67
2022/06/09 01:39:05;;;;;;;30.47;9.37;;;;;;;11.94;100.00;100721.09;5197858;28;20036;-67
2022/06/09 01:41:46;;;;;;;27.10;10.00;;;;;;;11.99;100.00;100726.91;5193654;28;20114;-67
2022/06/09 01:44:18;;;;;;;27.65;9.68;;;;;;;11.96;100.00;100724.47;5191564;28;20085;-67
2022/06/09 01:46:51;;;;;;;30.70;9.40;;;;;;;11.97;100.00;100731.53;5197540;28;20418;-67
2022/06/09 01:49:29;;;;;;;42.80;10.45;;;;;;;11.87;100.00;100730.56;5193608;28;20495;-67
2022/06/09 01:52:02;;;;;;;32.22;10.07;;;;;;;11.90;100.00;100736.53;5197819;28;20034;-67
2022/06/09 01:54:37;;;;;;;31.38;10.13;;;;;;;11.88;100.00;100742.97;5199705;28;20034;-67
2022/06/09 01:57:17;;;;;;;39.83;10.80;;;;;;;11.82;100.00;100746.16;5198031;28;20274;-67
2022/06/09 01:59:58;;;;;;;38.97;10.57;;;;;;;11.99;100.00;100740.28;5197181;28;20124;-67
2022/06/09 02:02:35;;;;;;;36.83;11.40;;;;;;;11.75;100.00;100741.34;5203186;28;20037;-67
2022/06/09 02:05:17;;;;;;;31.98;9.90;;;;;;;11.85;100.00;100725.38;5207484;28;20040;-67
2022/06/09 02:07:51;;;;;;;40.08;11.20;;;;;;;11.76;100.00;100734.16;5204112;28;21349;-67
2022/06/09 02:10:32;;;;;;;41.05;11.35;;;;;;;11.75;100.00;100735.97;5196482;28;20079;-67
2022/06/09 02:13:07;;;;;;;38.30;11.35;;;;;;;11.89;100.00;100737.53;5198674;28;20097;-67
2022/06/09 02:15:42;;;;;;;33.60;12.18;;;;;;;11.80;100.00;100746.28;5199593;28;20034;-67
2022/06/09 02:18:22;;;;;;;36.28;11.82;;;;;;;11.74;100.00;100752.16;5206484;28;20053;-67
2022/06/09 02:21:04;;;;;;;33.88;11.77;;;;;;;11.73;100.00;100748.59;5203655;28;20625;-67
2022/06/09 02:23:36;;;;;;;33.40;11.13;;;;;;;11.88;100.00;100754.50;5196229;28;20038;-67
2022/06/09 02:26:08;;;;;;;32.88;11.38;;;;;;;11.83;100.00;100748.72;5200521;28;20033;-67
2022/06/09 02:28:39;;;;;;;39.42;12.98;;;;;;;11.75;100.00;100749.34;5194202;28;20030;-67
2022/06/09 02:31:11;;;;;;;39.42;12.45;;;;;;;11.81;100.00;100755.97;5197745;28;20628;-67
2022/06/09 02:33:43;;;;;;;40.10;12.52;;;;;;;11.77;100.00;100759.88;5198970;28;20061;-67
2022/06/09 02:36:14;;;;;;;37.97;12.43;;;;;;;11.68;100.00;100771.38;5203752;28;20072;-67
2022/06/09 02:38:46;;;;;;;33.83;12.80;;;;;;;11.66;100.00;100762.59;5200019;28;20041;-67
2022/06/09 02:41:17;;;;;;;36.88;12.65;;;;;;;11.66;100.00;100771.50;5197569;28;20083;-67
2022/06/09 02:43:48;;;;;;;42.92;13.00;;;;;;;11.78;100.00;100774.97;5196899;28;20069;-67
2022/06/09 02:46:20;;;;;;;36.28;13.85;;;;;;;11.80;100.00;100766.81;5195510;28;20029;-67
2022/06/09 02:48:53;;;;;;;42.10;13.85;;;;;;;11.74;100.00;100778.88;5200478;28;20030;-67
2022/06/09 02:51:30;;;;;;;40.25;13.40;;;;;;;11.67;100.00;100778.50;5200187;28;20034;-67
2022/06/09 02:54:05;;;;;;;43.35;13.73;;;;;;;11.69;100.00;100773.03;5198964;28;20504;-67
2022/06/09 02:56:36;;;;;;;40.80;13.57;;;;;;;11.75;100.00;100783.22;5200757;28;20118;-67
2022/06/09 02:59:08;;;;;;;37.28;14.07;;;;;;;11.66;100.00;100773.28;5205096;28;20395;-67
2022/06/09 03:01:40;;;;;;;37.20;13.45;;;;;;;11.66;100.00;100784.84;5198390;28;20029;-67
2022/06/09 03:04:12;;;;;;;42.83;15.05;;;;;;;11.63;100.00;100781.56;5204783;28;20396;-67
2022/06/09 03:06:43;;;;;;;46.13;13.18;;;;;;;11.66;100.00;100794.66;5208189;28;20026;-67
2022/06/09 03:09:14;;;;;;;32.75;13.65;;;;;;;11.70;100.00;100802.31;5197061;28;20822;-67
2022/06/09 03:11:46;;;;;;;39.58;13.63;;;;;;;11.63;100.00;100798.44;5204063;28;20401;-67
2022/06/09 03:14:17;;;;;;;52.08;14.63;;;;;;;11.61;100.00;100802.22;5200615;28;20076;-67
2022/06/09 03:16:48;;;;;;;43.08;15.07;;;;;;;11.58;100.00;100806.84;5198067;28;20617;-67
2022/06/09 03:19:20;;;;;;;45.47;14.15;;;;;;;11.55;100.00;100817.78;5196920;28;20084;-67
2022/06/09 03:21:51;;;;;;;41.13;14.40;;;;;;;11.63;100.00;100819.81;5195459;28;20112;-67
2022/06/09 03:24:23;;;;;;;42.58;13.98;;;;;;;11.54;100.00;100821.44;5206806;28;20108;-67
2022/06/09 03:26:54;;;;;;;42.50;14.60;;;;;;;11.57;100.00;100823.00;5195492;28;20040;-67
2022/06/09 03:29:25;;;;;;;47.17;14.88;;;;;;;11.55;100.00;100828.47;5199537;28;20034;-67
2022/06/09 03:31:57;;;;;;;45.25;14.95;;;;;;;11.55;100.00;100820.44;5197497;28;20034;-67
2022/06/09 03:34:28;;;;;;;41.13;14.13;;;;;;;11.50;100.00;100830.66;5200831;28;20045;-67
2022/06/09 03:36:59;;;;;;;42.88;15.00;;;;;;;11.48;100.00;100837.94;5205662;28;20109;-67
2022/06/09 03:39:31;;;;;;;41.33;14.02;;;;;;;11.49;100.00;100845.00;5198426;28;20030;-67
2022/06/09 03:42:03;;;;;;;45.33;14.85;;;;;;;11.37;100.00;100844.16;5208463;28;20027;-67
2022/06/09 03:44:34;;;;;;;43.78;14.10;;;;;;;11.48;100.00;100856.66;5202212;28;20105;-67
2022/06/09 03:47:06;;;;;;;36.35;13.98;;;;;;;11.47;100.00;100859.47;5197285;28;20037;-67
2022/06/09 03:49:38;;;;;;;39.55;14.55;;;;;;;11.37;100.00;100853.97;5196197;28;20026;-67
2022/06/09 03:52:09;;;;;;;37.05;14.05;;;;;;;11.43;100.00;100853.50;5196162;28;20116;-67
2022/06/09 03:54:40;;;;;;;42.33;15.02;;;;;;;11.29;100.00;100857.25;5199942;28;20032;-67
2022/06/09 03:57:12;;;;;;;48.05;15.43;;;;;;;11.42;100.00;100864.31;5197287;28;20029;-67
2022/06/09 03:59:43;;;;;;;40.92;15.25;;;;;;;11.32;100.00;100867.72;5198738;28;20514;-67
2022/06/09 04:02:14;;;;;;;43.45;15.32;;;;;;;11.42;100.00;100862.50;5197372;28;20084;-67
2022/06/09 04:04:45;;;;;;;42.75;15.13;;;;;;;11.33;100.00;100865.88;5198460;28;20056;-67
2022/06/09 04:07:17;;;;;;;48.13;15.43;;;;;;;11.43;100.00;100874.88;5200126;28;20036;-67
2022/06/09 04:09:48;;;;;;;45.95;15.25;;;;;;;11.35;100.00;100883.50;5197616;28;20038;-67
2022/06/09 04:12:19;;;;;;;46.20;15.52;;;;;;;11.36;100.00;100889.69;5198450;28;20109;-67
2022/06/09 04:14:51;;;;;;;41.28;15.07;;;;;;;11.33;100.00;100885.47;5198688;28;20030;-67
2022/06/09 04:17:22;;;;;;;47.20;15.93;;;;;;;11.28;100.00;100894.81;5199159;28;20137;-67
2022/06/09 04:19:54;;;;;;;45.72;15.90;;;;;;;11.34;100.00;100892.47;5201887;28;20080;-67
2022/06/09 04:22:26;;;;;;;44.05;16.38;;;;;;;11.27;100.00;100893.09;5204950;28;20057;-67
2022/06/09 04:24:57;;;;;;;43.85;16.08;;;;;;;11.31;100.00;100903.44;5203115;28;20067;-67
2022/06/09 04:27:28;;;;;;;46.33;14.75;;;;;;;11.26;100.00;100899.41;5205100;28;20034;-67
2022/06/09 04:30:00;;;;;;;40.85;15.00;;;;;;;11.40;100.00;100901.00;5202514;28;20018;-67
2022/06/09 04:32:31;;;;;;;50.55;15.98;;;;;;;11.29;100.00;100899.16;5199441;28;20113;-67
2022/06/09 04:35:04;;;;;;;39.85;15.93;;;;;;;11.37;100.00;100905.63;5197635;28;20029;-67
2022/06/09 04:40:25;;;;;;;38.15;15.00;;;;;;;11.42;100.00;100912.41;5201083;28;20033;-67
2022/06/09 04:42:57;;;;;;;42.75;16.75;;;;;;;11.31;100.00;100914.13;5204205;28;20083;-67
2022/06/09 04:45:28;;;;;;;44.30;16.13;;;;;;;11.36;100.00;100919.94;5205231;28;20756;-67
2022/06/09 04:47:59;;;;;;;46.75;17.45;;;;;;;11.34;100.00;100921.03;5205389;28;20706;-67
2022/06/09 04:50:32;;;;;;;39.20;16.35;;;;;;;11.45;100.00;100928.19;5195765;28;20124;-67
2022/06/09 04:53:05;;;;;;;46.47;16.88;;;;;;;11.42;100.00;100925.78;5200186;28;20095;-67
2022/06/09 04:55:37;;;;;;;49.15;17.08;;;;;;;11.43;100.00;100922.09;5194763;28;21140;-67
2022/06/09 04:58:08;;;;;;;54.33;17.08;;;;;;;11.43;100.00;100925.66;5198291;28;20661;-67
2022/06/09 05:00:40;;;;;;;43.67;16.98;;;;;;;11.47;100.00;100928.94;5202809;28;20044;-67
2022/06/09 05:03:14;;;;;;;51.47;18.00;;;;;;;11.65;100.00;100937.31;5204561;28;20044;-67
2022/06/09 05:05:48;;;;;;;45.25;17.17;;;;;;;11.58;100.00;100943.16;5194704;28;20033;-67
2022/06/09 05:08:19;;;;;;;47.08;18.00;;;;;;;11.60;100.00;100950.16;5195076;28;20069;-67
2022/06/09 05:10:51;;;;;;;43.25;18.38;;;;;;;11.65;100.00;100958.69;5193963;28;20057;-67
2022/06/09 05:13:22;;;;;;;45.92;18.52;;;;;;;11.75;100.00;100959.66;5197773;28;20060;-67
2022/06/09 05:15:55;;;;;;;51.33;18.35;;;;;;;11.90;100.00;100969.16;5201950;28;20437;-67
2022/06/09 05:18:31;;;;;;;43.90;19.05;;;;;;;12.09;100.00;100973.03;5203477;28;20459;-67
2022/06/09 05:21:05;;;;;;;53.90;20.63;;;;;;;12.34;100.00;100971.88;5196814;28;20053;-67
2022/06/09 05:23:37;;;;;;;46.75;20.02;;;;;;;12.45;100.00;100976.34;5206261;28;20034;-67
2022/06/09 05:26:09;;;;;;;50.45;21.90;;;;;;;12.52;100.00;100974.84;5201698;28;20080;-67
2022/06/09 05:28:41;;;;;;;47.05;20.52;;;;;;;12.73;100.00;100981.13;5196329;28;20041;-67
2022/06/09 05:31:12;;;;;;;50.70;20.67;;;;;;;12.77;100.00;100984.38;5201359;28;20034;-66
2022/06/09 05:33:43;;;;;;;42.30;19.90;;;;;;;12.84;100.00;100998.09;5211563;28;20112;-67
2022/06/09 05:36:15;;;;;;;47.33;18.30;;;;;;;12.67;100.00;101003.03;5204662;28;20140;-66
2022/06/09 05:47:19;;;;;;;35.70;14.25;;;;;;;12.57;100.00;101019.97;5204731;28;20453;-67
2022/06/09 05:49:52;;;;;;;37.75;14.77;;;;;;;12.55;100.00;101026.31;5202523;28;20561;-67
2022/06/09 05:52:27;;;;;;;39.97;14.47;;;;;;;12.71;100.00;101025.91;5199505;28;20021;-67
2022/06/09 05:54:58;;;;;;;36.65;16.35;;;;;;;13.00;100.00;101025.31;5206946;28;20503;-66
2022/06/09 05:57:29;;;;;;;37.80;15.85;;;;;;;12.95;100.00;101024.84;5208896;28;20121;-66
2022/06/09 06:00:03;;;;;;;39.97;15.25;;;;;;;13.09;100.00;101029.88;5201005;28;20395;-67
2022/06/09 06:02:34;;;;;;;44.20;15.73;;;;;;;13.26;100.00;101030.28;5202113;28;20396;-67
2022/06/09 06:06:33;;;;;;;38.60;15.68;;;;;;;13.39;100.00;101043.53;5200477;28;20150;-66
2022/06/09 06:07:58;;;;;;;33.25;14.90;;;;;;;13.54;100.00;101044.91;5202712;28;20057;-66
2022/06/09 06:10:29;;;;;;;30.65;14.75;;;;;;;13.51;100.00;101051.34;5200201;28;21279;-66
2022/06/09 06:13:00;;;;;;;30.95;14.85;;;;;;;13.59;100.00;101052.53;5205491;28;20025;-66
2022/06/09 06:15:32;;;;;;;27.73;14.00;;;;;;;13.64;100.00;101061.03;5201727;28;20324;-66
2022/06/09 06:18:03;;;;;;;29.42;13.02;;;;;;;13.71;100.00;101059.50;5199833;28;20041;-66
2022/06/09 06:20:35;;;;;;;31.20;14.13;;;;;;;13.81;100.00;101067.63;5199054;28;21353;-66
2022/06/09 06:23:06;;;;;;;32.00;13.90;;;;;;;13.96;100.00;101065.41;5202459;28;20157;-66
2022/06/09 06:25:38;;;;;;;29.05;14.63;;;;;;;14.05;100.00;101075.34;5202548;28;20040;-67
2022/06/09 06:28:09;;;;;;;29.50;13.50;;;;;;;14.00;100.00;101081.13;5201712;28;20748;-66
2022/06/09 06:30:40;;;;;;;27.23;13.05;;;;;;;14.08;100.00;101075.09;5202598;28;20026;-66
2022/06/09 06:33:12;;;;;;;22.63;11.13;;;;;;;13.96;100.00;101084.19;5199942;28;20456;-66
2022/06/09 06:35:43;;;;;;;26.20;10.88;;;;;;;13.97;100.00;101091.28;5204263;28;20527;-66
2022/06/09 06:38:15;;;;;;;25.10;11.77;;;;;;;13.86;100.00;101087.69;5199092;28;20157;-66
2022/06/09 06:40:46;;;;;;;23.40;10.05;;;;;;;13.87;100.00;101096.59;5203625;28;20037;-66
2022/06/09 06:43:18;;;;;;;22.08;11.02;;;;;;;13.85;100.00;101094.03;5198502;28;20073;-66
2022/06/09 06:45:49;;;;;;;25.63;10.90;;;;;;;13.95;100.00;101104.81;5198685;28;20058;-66
2022/06/09 06:48:20;;;;;;;21.38;9.57;;;;;;;13.78;100.00;101111.63;5207096;28;20026;-66
2022/06/09 06:50:52;;;;;;;23.33;10.00;;;;;;;13.87;100.00;101110.84;5207107;28;20034;-66
2022/06/09 06:53:24;;;;;;;23.33;9.32;;;;;;;13.91;100.00;101120.31;5197650;28;20076;-67
2022/06/09 06:55:56;;;;;;;18.23;9.73;;;;;;;14.05;100.00;101120.97;5203986;28;20034;-66
2022/06/09 06:58:27;;;;;;;20.95;9.50;;;;;;;13.89;100.00;101124.97;5202676;28;20038;-66
2022/06/09 07:00:59;;;;;;;18.45;9.13;;;;;;;13.89;100.00;101121.44;5202426;28;20586;-66
2022/06/09 07:03:31;;;;;;;20.02;9.18;;;;;;;13.88;100.00;101125.09;5198927;28;20480;-66
2022/06/09 07:06:05;;;;;;;18.45;9.55;;;;;;;14.09;100.00;101127.75;5200575;28;20038;-66
2022/06/09 07:08:37;;;;;;;25.20;10.02;;;;;;;14.17;100.00;101136.00;5198315;28;20041;-66
2022/06/09 07:11:08;;;;;;;23.48;11.35;;;;;;;14.22;100.00;101144.50;5195461;28;20085;-66
2022/06/09 07:13:42;;;;;;;20.15;10.43;;;;;;;14.26;100.00;101145.91;5199558;28;20065;-66
2022/06/09 07:16:13;;;;;;;18.13;9.73;;;;;;;14.29;100.00;101150.19;5204222;28;20388;-66
2022/06/09 07:18:45;;;;;;;14.25;8.18;;;;;;;14.39;100.00;101152.91;5199759;28;20145;-67
2022/06/09 07:21:17;;;;;;;14.13;6.97;;;;;;;14.27;100.00;101158.38;5203105;28;20041;-66
2022/06/09 07:23:48;;;;;;;10.15;5.85;;;;;;;14.25;100.00;101168.41;5200614;28;20034;-66
2022/06/09 07:26:19;;;;;;;9.95;4.68;;;;;;;14.28;100.00;101167.25;5200253;28;20037;-66
2022/06/09 07:28:51;;;;;;;11.48;5.13;;;;;;;14.39;100.00;101169.88;5196902;28;20032;-66
2022/06/09 07:31:22;;;;;;;7.22;4.00;;;;;;;14.43;100.00;101173.13;5204130;28;20135;-66
2022/06/09 07:33:54;;;;;;;7.88;3.20;;;;;;;14.36;100.00;101175.50;5202269;28;20505;-66
2022/06/09 07:36:26;;;;;;;7.13;3.40;;;;;;;14.40;100.00;101171.59;5200770;28;20034;-66
2022/06/09 07:38:57;;;;;;;6.47;3.42;;;;;;;14.50;100.00;101166.25;5204073;28;20026;-66
2022/06/09 07:41:28;;;;;;;6.18;2.97;;;;;;;14.66;100.00;101161.25;5203603;28;20025;-66
2022/06/09 07:44:03;;;;;;;8.80;3.75;;;;;;;14.79;100.00;101169.06;5209678;28;20029;-66
2022/06/09 07:46:35;;;;;;;7.60;3.25;;;;;;;15.06;100.00;101167.56;5209229;28;20117;-65
2022/06/09 07:49:07;;;;;;;10.68;3.60;;;;;;;15.06;100.00;101173.78;5200590;28;20065;-66
2022/06/09 07:51:38;;;;;;;7.68;2.75;;;;;;;15.19;100.00;101175.38;5204258;28;20065;-66
2022/06/09 07:54:10;;;;;;;7.18;2.80;;;;;;;15.37;100.00;101176.38;5204046;28;20266;-66
2022/06/09 07:56:42;;;;;;;7.15;2.20;;;;;;;15.35;100.00;101183.72;5204541;28;20036;-66
2022/06/09 07:59:14;;;;;;;8.70;2.10;;;;;;;15.44;100.00;101184.75;5203866;28;20030;-66
2022/06/09 08:01:46;;;;;;;6.45;2.00;;;;;;;15.52;100.00;101189.41;5207292;28;20089;-66
2022/06/09 08:04:17;;;;;;;5.03;1.80;;;;;;;15.59;100.00;101198.59;5204133;28;20031;-65
2022/06/09 08:06:49;;;;;;;5.57;1.80;;;;;;;15.56;100.00;101198.91;5208378;28;20497;-65
2022/06/09 08:09:20;;;;;;;4.72;1.83;;;;;;;15.62;100.00;101198.31;5210875;28;20113;-66
2022/06/09 08:11:51;;;;;;;15.75;2.65;;;;;;;15.66;100.00;101199.72;5203757;28;20045;-65
2022/06/09 08:14:24;;;;;;;6.72;2.20;;;;;;;15.71;100.00;101205.56;5204176;28;20087;-65
2022/06/09 08:16:55;;;;;;;6.72;2.20;;;;;;;15.66;100.00;101205.13;5202601;28;20029;-65
2022/06/09 08:19:26;;;;;;;5.47;2.08;;;;;;;15.72;100.00;101203.69;5204059;28;20050;-65
2022/06/09 08:21:57;;;;;;;7.13;3.10;;;;;;;15.81;100.00;101209.09;5200513;28;20610;-65
2022/06/09 08:24:29;;;;;;;6.10;2.63;;;;;;;15.84;100.00;101216.06;5206030;28;20740;-65
2022/06/09 08:27:01;;;;;;;6.50;2.88;;;;;;;15.91;100.00;101221.72;5203654;28;20056;-65
2022/06/09 08:29:32;;;;;;;7.68;2.35;;;;;;;15.80;100.00;101222.69;5202394;28;20058;-65
2022/06/09 08:32:05;;;;;;;6.68;2.42;;;;;;;15.82;100.00;101221.59;5208097;28;20239;-66
2022/06/09 08:34:36;;;;;;;6.85;2.38;;;;;;;15.76;100.00;101232.03;5209152;28;20549;-65
2022/06/09 08:37:07;;;;;;;4.50;2.25;;;;;;;15.75;100.00;101230.38;5199413;28;20035;-65
2022/06/09 08:39:38;;;;;;;5.25;2.00;;;;;;;15.99;100.00;101235.28;5211715;28;20037;-65
2022/06/09 08:42:25;;;;;;;5.88;2.55;;;;;;;16.12;100.00;101246.59;5206743;28;20018;-65
2022/06/09 08:45:03;;;;;;;6.22;2.83;;;;;;;16.41;100.00;101245.69;5197654;28;20038;-65
2022/06/09 08:47:41;;;;;;;7.63;2.50;;;;;;;16.56;100.00;101251.47;5209721;28;20057;-65
2022/06/09 08:50:31;;;;;;;5.82;2.17;;;;;;;16.72;100.00;101250.84;5209899;28;20036;-65
2022/06/09 08:53:09;;;;;;;6.15;2.28;;;;;;;16.78;100.00;101261.03;5208720;28;20060;-65
2022/06/09 08:55:45;;;;;;;7.28;2.55;;;;;;;16.93;100.00;101259.63;5208416;28;20037;-65
2022/06/09 08:58:28;;;;;;;5.13;1.95;;;;;;;16.88;100.00;101259.19;5210959;28;20029;-65
2022/06/09 09:01:10;;;;;;;7.07;1.90;;;;;;;16.75;100.00;101258.66;5200763;28;20034;-65
2022/06/09 09:03:57;;;;;;;5.28;2.15;;;;;;;16.73;100.00;101264.19;5206203;28;20029;-65
2022/06/09 09:06:53;;;;;;;5.68;2.30;;;;;;;16.81;100.00;101268.84;5207006;28;20037;-65
2022/06/09 09:09:29;;;;;;;4.97;2.20;;;;;;;16.91;100.00;101272.34;5209025;28;20030;-65
2022/06/09 09:12:42;;;;;;;5.50;2.47;;;;;;;16.83;100.00;101272.25;5216368;28;20034;-65
2022/06/09 09:15:27;;;;;;;6.38;2.40;;;;;;;16.70;100.00;101271.72;5214312;28;20161;-65
2022/06/09 09:18:19;;;;;;;3.65;2.30;;;;;;;16.63;100.00;101279.53;5205537;28;20164;-65
2022/06/09 09:20:56;;;;;;;4.65;2.63;;;;;;;16.66;100.00;101281.94;5208903;28;20451;-65
2022/06/09 09:23:46;;;;;;;4.90;2.25;;;;;;;16.65;100.00;101277.56;5209937;28;20026;-65
2022/06/09 09:26:31;;;;;;;5.55;2.45;;;;;;;16.69;100.00;101286.19;5210392;28;20030;-65
2022/06/09 09:29:16;;;;;;;6.30;2.50;;;;;;;16.56;100.00;101287.34;5209013;28;20044;-65
2022/06/09 09:31:58;;;;;;;;;;;;;;;16.58;100.00;101295.28;5213733;28;20673;-66
2022/06/09 09:34:43;;;;;;;6.20;3.05;;;;;;;16.55;100.00;101287.47;5212647;28;19917;-65
2022/06/09 09:37:25;;;;;;;4.32;2.63;;;;;;;16.73;100.00;101295.69;5214250;28;20041;-65
2022/06/09 09:40:06;;;;;;;5.75;2.72;;;;;;;16.72;100.00;101299.34;5212131;28;20688;-65
2022/06/09 09:42:42;;;;;;;5.95;2.67;;;;;;;16.84;100.00;101304.47;5215134;28;20034;-65
2022/06/09 09:45:45;;;;;;;5.78;2.67;;;;;;;16.99;100.00;101301.28;5208890;28;20030;-65
2022/06/09 09:48:16;;;;;;;6.10;3.08;;;;;;;17.01;100.00;101310.09;5202948;28;20575;-65
2022/06/09 09:51:13;;;;;;;5.60;3.20;;;;;;;17.17;100.00;101309.44;5206955;28;20034;-65
2022/06/09 09:53:44;;;;;;;7.07;3.05;;;;;;;17.38;100.00;101307.34;5210094;28;20113;-65
2022/06/09 09:56:15;;;;;;;7.70;3.33;;;;;;;17.48;100.00;101314.53;5210179;28;20030;-65
2022/06/09 09:58:47;;;;;;;5.28;3.35;;;;;;;17.49;100.00;101314.38;5217494;28;20026;-65
2022/06/09 10:01:18;;;;;;;7.72;3.55;;;;;;;17.77;100.00;101312.47;5210714;28;20435;-65
2022/06/09 10:09:50;;;;;;;8.85;3.90;;;;;;;17.32;100.00;101337.63;5201327;28;20065;-66
2022/06/09 10:12:31;;;;;;;14.25;4.70;;;;;;;17.10;100.00;101364.94;5212261;28;20083;-66
2022/06/09 10:15:02;;;;;;;27.02;8.15;;;;;;;16.29;100.00;101352.75;5204839;28;20049;-68
2022/06/09 10:17:33;;;;;;;10.93;6.25;;;;;;;15.62;100.00;101338.19;5210147;28;20409;-67
2022/06/09 10:20:14;;;;;;;10.88;5.38;;;;;;;15.34;100.00;101346.06;5210459;28;20038;-67
2022/06/09 10:23:17;;;;;;;12.93;5.97;;;;;;;15.14;100.00;101350.50;5212065;28;20034;-66
2022/06/09 10:26:11;;;;;;;9.52;8.52;;;;;;;15.17;100.00;101346.66;5207497;28;20037;-66
2022/06/09 10:28:58;;;;;;;16.70;12.35;;;;;;;15.41;100.00;101349.03;5213236;28;20489;-66
2022/06/09 10:31:29;;;;;;;18.15;14.57;;;;;;;15.41;100.00;101352.56;5208811;28;20092;-66
2022/06/09 10:34:15;;;;;;;17.15;13.20;;;;;;;15.46;100.00;101360.25;5210968;28;20030;-68
2022/06/09 10:37:13;;;;;;;19.45;15.50;;;;;;;15.78;100.00;101353.81;5209247;28;20069;-67
2022/06/09 10:39:54;;;;;;;21.40;17.45;;;;;;;15.86;100.00;101357.53;5204688;28;20508;-67
2022/06/09 10:42:34;;;;;;;27.00;21.58;;;;;;;16.26;100.00;101353.88;5205329;28;20033;-67
2022/06/09 10:45:18;;;;;;;21.92;19.73;;;;;;;16.08;100.00;101360.94;5203906;28;20428;-66
2022/06/09 10:57:29;;;;;;;22.08;18.10;;;;;;;16.20;100.00;101364.34;5205402;28;20608;-65
2022/06/09 11:00:08;;;;;;;18.45;16.55;;;;;;;16.17;100.00;101373.56;5209479;28;20502;-65
2022/06/09 11:02:45;;;;;;;11.43;8.73;;;;;;;15.99;100.00;101372.56;5215418;28;20456;-65
2022/06/09 11:05:22;;;;;;;9.30;7.00;;;;;;;15.63;100.00;101374.88;5206270;28;20037;-65
2022/06/09 11:08:25;;;;;;;9.95;6.60;;;;;;;15.41;100.00;101373.25;5212541;28;20488;-65
2022/06/09 11:11:09;;;;;;;11.68;7.32;;;;;;;15.52;100.00;101375.81;5212124;28;20038;-66
2022/06/09 11:14:02;;;;;;;12.77;8.45;;;;;;;15.45;100.00;101385.41;5215466;28;20025;-65
2022/06/09 11:16:56;;;;;;;11.40;6.07;;;;;;;15.43;100.00;101388.25;5204990;28;20055;-65
2022/06/09 11:19:56;;;;;;;9.90;7.38;;;;;;;15.52;100.00;101383.91;5207914;28;21554;-66
2022/06/09 11:22:49;;;;;;;10.80;7.13;;;;;;;15.94;100.00;101380.22;5209930;28;20099;-65
2022/06/09 11:25:25;;;;;;;9.25;5.25;;;;;;;15.91;100.00;101384.00;5206020;28;20061;-65
2022/06/09 11:28:19;;;;;;;8.98;5.30;;;;;;;15.60;100.00;101389.44;5211824;28;20030;-65
2022/06/09 11:31:12;;;;;;;9.45;5.30;;;;;;;15.46;100.00;101395.22;5206889;28;20103;-65
2022/06/09 11:33:55;;;;;;;11.70;5.72;;;;;;;15.54;100.00;101390.00;5213096;28;20025;-65
2022/06/09 11:36:45;;;;;;;9.00;6.00;;;;;;;15.61;100.00;101395.66;5205223;28;20062;-65
2022/06/09 11:39:33;;;;;;;10.43;6.93;;;;;;;15.61;100.00;101401.91;5215703;28;20037;-65
2022/06/09 11:42:15;;;;;;;11.93;5.32;;;;;;;15.75;100.00;101403.41;5208086;28;20067;-65
2022/06/09 11:44:51;;;;;;;8.23;4.32;;;;;;;15.78;100.00;101410.31;5202990;28;20041;-65
2022/06/09 11:47:28;;;;;;;9.60;4.30;;;;;;;15.70;100.00;101410.97;5201095;28;20112;-65
2022/06/09 11:50:05;;;;;;;8.02;4.55;;;;;;;15.73;100.00;101413.44;5204534;28;20042;-64
2022/06/09 11:52:46;;;;;;;8.95;4.10;;;;;;;15.89;100.00;101426.38;5208591;28;20399;-64
2022/06/09 11:56:03;;;;;;;9.05;3.83;;;;;;;15.83;100.00;101429.63;5205756;28;20033;-65
2022/06/09 11:58:34;;;;;;;8.80;3.60;;;;;;;15.83;100.00;101433.16;5210080;28;20026;-65
2022/06/09 12:01:23;;;;;;;9.65;4.95;;;;;;;15.98;100.00;101436.31;5206357;28;20649;-65
2022/06/09 12:04:29;;;;;;;8.65;4.45;;;;;;;16.15;100.00;101440.16;5210020;28;20040;-65
2022/06/09 12:07:03;;;;;;;9.50;3.70;;;;;;;16.21;100.00;101436.06;5209018;28;20060;-65
2022/06/09 12:09:55;;;;;;;8.55;4.35;;;;;;;16.18;100.00;101444.41;5211505;28;20129;-65
2022/06/09 12:12:34;;;;;;;12.20;6.30;;;;;;;16.15;100.00;101439.31;5205464;28;20045;-65
2022/06/09 12:15:20;;;;;;;8.65;5.43;;;;;;;16.13;100.00;101447.53;5201278;28;20034;-65
2022/06/09 12:18:06;;;;;;;13.13;6.55;;;;;;;16.08;100.00;101453.31;5205147;28;20078;-65